createdAt,value
2018-11-05T00:01:08.053Z,81.57
2018-11-05T00:03:38.679Z,81.97
2018-11-05T00:06:09.396Z,82.27
2018-11-05T00:08:39.715Z,81.69
2018-11-05T00:11:25.827Z,81.70
2018-11-05T00:13:56.546Z,82.24
2018-11-05T00:16:27.231Z,82.67
2018-11-05T00:18:58.816Z,82.71
2018-11-05T00:21:29.563Z,82.88
2018-11-05T00:24:00.453Z,83.06
2018-11-05T00:26:32.084Z,82.63
2018-11-05T00:29:03.536Z,82.82
2018-11-05T00:31:34.253Z,82.89
2018-11-05T00:34:05.747Z,83.22
2018-11-05T00:36:37.597Z,82.83
2018-11-05T00:39:11.401Z,83.24
2018-11-05T00:41:42.852Z,82.89
2018-11-05T00:44:13.743Z,82.76
2018-11-05T00:46:44.515Z,82.43
2018-11-05T00:49:15.131Z,81.67
2018-11-05T00:51:45.727Z,82.03
2018-11-05T00:54:16.349Z,82.46
2018-11-05T00:56:47.024Z,82.71
2018-11-05T00:59:17.753Z,82.14
2018-11-05T01:01:48.752Z,82.82
2018-11-05T01:04:19.429Z,82.51
2018-11-05T01:06:50.119Z,84.44
2018-11-05T01:09:20.799Z,84.07
2018-11-05T01:11:53.590Z,83.75
2018-11-05T01:14:24.633Z,83.38
2018-11-05T01:16:56.765Z,83.72
2018-11-05T01:19:28.786Z,82.88
2018-11-05T01:21:59.361Z,83.42
2018-11-05T01:24:30.155Z,83.77
2018-11-05T01:27:00.754Z,84.19
2018-11-05T01:29:31.392Z,84.33
2018-11-05T01:32:02.094Z,83.93
2018-11-05T01:34:32.752Z,83.93
2018-11-05T01:37:03.476Z,83.53
2018-11-05T01:39:34.275Z,83.34
2018-11-05T01:42:05.437Z,83.35
2018-11-05T01:44:36.837Z,82.82
2018-11-05T01:47:13.733Z,84.87
2018-11-05T01:49:45.104Z,84.76
2018-11-05T01:52:18.229Z,84.85
2018-11-05T01:54:51.287Z,85.41
2018-11-05T01:57:22.042Z,85.79
2018-11-05T01:59:52.639Z,85.90
2018-11-05T02:02:23.629Z,86.17
2018-11-05T02:04:55.663Z,85.96
2018-11-05T02:07:26.659Z,86.32
2018-11-05T02:09:57.480Z,85.95
2018-11-05T02:12:29.573Z,85.91
2018-11-05T02:15:00.204Z,85.54
2018-11-05T02:17:30.960Z,86.47
2018-11-05T02:20:02.024Z,86.27
2018-11-05T02:22:32.823Z,85.75
2018-11-05T02:25:03.690Z,86.15
2018-11-05T02:27:34.280Z,85.72
2018-11-05T02:30:07.754Z,85.13
2018-11-05T02:32:38.716Z,85.29
2018-11-05T02:35:11.215Z,85.33
2018-11-05T02:37:42.847Z,85.42
2018-11-05T02:40:17.831Z,84.90
2018-11-05T02:42:49.064Z,84.88
2018-11-05T02:45:20.706Z,84.37
2018-11-05T02:47:52.312Z,84.14
2018-11-05T02:50:23.372Z,84.25
2018-11-05T02:52:55.133Z,83.22
2018-11-05T02:55:27.180Z,83.68
2018-11-05T02:57:58.440Z,84.78
2018-11-05T03:00:29.945Z,84.00
2018-11-05T03:03:00.892Z,83.89
2018-11-05T03:05:32.588Z,83.94
2018-11-05T03:08:03.967Z,83.98
2018-11-05T03:10:34.575Z,84.67
2018-11-05T03:13:06.028Z,85.42
2018-11-05T03:15:36.627Z,85.93
2018-11-05T03:18:07.392Z,87.03
2018-11-05T03:20:37.993Z,87.01
2018-11-05T03:23:20.815Z,87.09
2018-11-05T03:25:51.560Z,86.69
2018-11-05T03:28:22.208Z,87.32
2018-11-05T03:30:52.993Z,87.18
2018-11-05T03:33:23.798Z,86.86
2018-11-05T03:35:54.401Z,87.09
2018-11-05T03:38:25.212Z,87.80
2018-11-05T03:40:55.991Z,86.77
2018-11-05T03:43:26.563Z,87.18
2018-11-05T03:45:57.355Z,86.39
2018-11-05T03:48:28.052Z,87.13
2018-11-05T03:50:58.750Z,87.25
2018-11-05T03:53:29.611Z,85.68
2018-11-05T03:56:00.500Z,86.38
2018-11-05T03:58:32.318Z,86.95
2018-11-05T04:01:02.996Z,86.43
2018-11-05T04:03:33.810Z,87.37
2018-11-05T04:06:04.705Z,88.17
2018-11-05T04:08:35.588Z,87.90
2018-11-05T04:11:06.745Z,87.06
2018-11-05T04:13:37.254Z,85.97
2018-11-05T04:16:08.198Z,85.41
2018-11-05T04:18:39.379Z,85.67
2018-11-05T04:21:10.587Z,86.38
2018-11-05T04:23:41.711Z,86.31
2018-11-05T04:26:13.873Z,86.47
2018-11-05T04:28:44.967Z,86.84
2018-11-05T04:31:15.622Z,87.05
2018-11-05T04:33:46.332Z,87.32
2018-11-05T04:36:17.010Z,87.22
2018-11-05T04:38:47.856Z,86.14
2018-11-05T04:41:19.064Z,87.22
2018-11-05T04:43:50.040Z,86.85
2018-11-05T04:46:21.464Z,87.04
2018-11-05T04:48:52.315Z,87.01
2018-11-05T04:51:23.131Z,87.35
2018-11-05T04:53:53.788Z,87.11
2018-11-05T04:56:24.644Z,86.71
2018-11-05T04:58:55.306Z,86.83
2018-11-05T05:01:25.912Z,86.60
2018-11-05T05:03:56.593Z,86.63
2018-11-05T05:06:27.251Z,86.83
2018-11-05T05:08:57.861Z,85.99
2018-11-05T05:11:28.694Z,86.49
2018-11-05T05:13:59.544Z,85.33
2018-11-05T05:16:30.141Z,84.22
2018-11-05T05:19:00.979Z,83.98
2018-11-05T05:21:31.636Z,84.13
2018-11-05T05:24:02.613Z,83.71
2018-11-05T05:26:33.490Z,83.79
2018-11-05T05:29:05.023Z,83.14
2018-11-05T05:31:35.906Z,83.34
2018-11-05T05:34:07.412Z,84.55
2018-11-05T05:36:38.263Z,84.66
2018-11-05T05:39:10.587Z,84.46
2018-11-05T05:41:41.289Z,84.03
2018-11-05T05:44:12.001Z,83.31
2018-11-05T05:46:42.600Z,83.49
2018-11-05T05:49:13.694Z,83.17
2018-11-05T05:51:44.431Z,83.01
2018-11-05T05:54:15.055Z,84.12
2018-11-05T05:56:45.798Z,86.10
2018-11-05T05:59:16.740Z,86.72
2018-11-05T06:01:50.072Z,86.34
2018-11-05T06:04:20.851Z,86.83
2018-11-05T06:06:52.322Z,86.78
2018-11-05T06:09:23.584Z,86.16
2018-11-05T06:11:54.192Z,86.51
2018-11-05T06:14:25.135Z,85.26
2018-11-05T06:16:55.897Z,84.25
2018-11-05T06:19:27.100Z,84.30
2018-11-05T06:21:58.367Z,82.96
2018-11-05T06:24:28.914Z,83.13
2018-11-05T06:27:00.051Z,81.52
2018-11-05T06:29:32.203Z,83.18
2018-11-05T06:32:05.220Z,83.85
2018-11-05T06:34:36.791Z,84.48
2018-11-05T06:37:08.728Z,85.25
2018-11-05T06:39:39.440Z,85.94
2018-11-05T06:42:10.266Z,85.09
2018-11-05T06:44:41.855Z,84.67
2018-11-05T06:47:12.991Z,84.39
2018-11-05T06:49:43.660Z,83.38
2018-11-05T06:52:14.427Z,84.21
2018-11-05T06:54:45.228Z,83.25
2018-11-05T06:57:15.885Z,82.03
2018-11-05T06:59:46.613Z,81.44
2018-11-05T07:02:17.261Z,80.56
2018-11-05T07:04:49.083Z,80.00
2018-11-05T07:07:19.759Z,79.97
2018-11-05T07:09:50.391Z,81.03
2018-11-05T07:12:21.141Z,81.51
2018-11-05T07:14:51.744Z,80.96
2018-11-05T07:17:22.437Z,80.64
2018-11-05T07:19:53.133Z,79.95
2018-11-05T07:22:23.959Z,80.72
2018-11-05T07:24:54.467Z,80.98
2018-11-05T07:27:25.089Z,80.53
2018-11-05T07:29:55.908Z,78.88
2018-11-05T07:32:26.640Z,77.56
2018-11-05T07:34:57.269Z,76.92
2018-11-05T07:37:30.888Z,78.12
2018-11-05T07:40:02.456Z,78.18
2018-11-05T07:42:33.548Z,78.78
2018-11-05T07:45:05.596Z,78.57
2018-11-05T07:47:36.776Z,78.76
2018-11-05T07:50:10.478Z,78.75
2018-11-05T07:52:41.833Z,78.58
2018-11-05T07:55:14.435Z,78.46
2018-11-05T07:57:46.320Z,78.65
2018-11-05T08:00:22.964Z,78.65
2018-11-05T08:02:55.027Z,78.48
2018-11-05T08:05:26.536Z,78.63
2018-11-05T08:07:57.152Z,78.67
2018-11-05T08:10:28.667Z,79.12
2018-11-05T08:12:59.460Z,79.61
2018-11-05T08:15:30.135Z,79.46
2018-11-05T08:18:00.827Z,79.27
2018-11-05T08:20:31.431Z,79.68
2018-11-05T08:23:02.240Z,79.42
2018-11-05T08:25:32.958Z,79.09
2018-11-05T08:28:04.085Z,78.75
2018-11-05T08:30:34.812Z,78.14
2018-11-05T08:33:06.095Z,78.09
2018-11-05T08:35:36.747Z,76.95
2018-11-05T08:38:09.252Z,78.02
2018-11-05T08:40:40.057Z,77.00
2018-11-05T08:43:10.732Z,77.60
2018-11-05T08:45:41.992Z,77.94
2018-11-05T08:48:12.779Z,77.61
2018-11-05T08:50:43.906Z,77.98
2018-11-05T08:53:14.796Z,78.02
2018-11-05T08:55:45.507Z,77.92
2018-11-05T08:58:16.282Z,77.96
2018-11-05T09:00:52.168Z,78.18
2018-11-05T09:03:23.083Z,77.94
2018-11-05T09:05:53.705Z,78.14
2018-11-05T09:08:24.328Z,77.93
2018-11-05T09:10:55.910Z,77.10
2018-11-05T09:13:27.137Z,76.50
2018-11-05T09:15:57.916Z,76.40
2018-11-05T09:18:28.929Z,76.52
2018-11-05T09:20:59.542Z,75.75
2018-11-05T09:23:30.372Z,75.75
2018-11-05T09:26:01.085Z,75.18
2018-11-05T09:28:31.675Z,76.20
2018-11-05T09:31:02.455Z,75.98
2018-11-05T09:33:33.989Z,76.71
2018-11-05T09:36:04.872Z,76.74
2018-11-05T09:38:35.597Z,76.79
2018-11-05T09:41:08.026Z,76.13
2018-11-05T09:43:39.185Z,75.73
2018-11-05T09:46:10.029Z,75.58
2018-11-05T09:48:41.045Z,75.36
2018-11-05T09:51:11.692Z,74.85
2018-11-05T09:53:42.835Z,74.75
2018-11-05T09:56:13.461Z,74.86
2018-11-05T09:58:45.033Z,75.06
2018-11-05T10:01:15.757Z,75.20
2018-11-05T10:03:53.065Z,74.72
2018-11-05T10:06:25.503Z,74.24
2018-11-05T10:08:56.334Z,74.19
2018-11-05T10:11:28.387Z,73.86
2018-11-05T10:13:59.136Z,73.32
2018-11-05T10:16:30.095Z,73.62
2018-11-05T10:19:00.933Z,73.62
2018-11-05T10:21:31.820Z,73.73
2018-11-05T10:24:02.672Z,74.08
2018-11-05T10:26:33.409Z,73.99
2018-11-05T10:29:04.130Z,74.28
2018-11-05T10:31:37.896Z,73.84
2018-11-05T10:34:12.731Z,74.17
2018-11-05T10:36:43.404Z,73.96
2018-11-05T10:39:14.805Z,74.78
2018-11-05T10:41:46.570Z,74.52
2018-11-05T10:44:17.313Z,74.45
2018-11-05T10:46:48.080Z,75.22
2018-11-05T10:49:21.836Z,75.82
2018-11-05T10:51:52.566Z,76.08
2018-11-05T10:54:27.307Z,76.08
2018-11-05T10:56:58.019Z,75.78
2018-11-05T10:59:29.210Z,75.73
2018-11-05T11:02:05.095Z,75.98
2018-11-05T11:04:37.565Z,75.49
2018-11-05T11:07:09.644Z,74.25
2018-11-05T11:09:43.141Z,73.38
2018-11-05T11:12:13.823Z,71.55
2018-11-05T11:14:44.497Z,70.11
2018-11-05T11:17:15.467Z,68.89
2018-11-05T11:19:46.133Z,70.18
2018-11-05T11:22:17.228Z,69.68
2018-11-05T11:24:47.986Z,69.76
2018-11-05T11:27:21.031Z,70.46
2018-11-05T11:32:32.795Z,69.62
2018-11-05T11:35:04.286Z,69.64
2018-11-05T11:37:34.922Z,70.01
2018-11-05T11:40:09.254Z,69.73
2018-11-05T11:42:40.811Z,69.53
2018-11-05T11:45:13.744Z,69.54
2018-11-05T11:47:44.699Z,69.78
2018-11-05T11:50:16.498Z,69.73
2018-11-05T11:52:48.904Z,70.21
2018-11-05T11:55:22.170Z,70.25
2018-11-05T11:57:52.870Z,70.44
2018-11-05T12:00:25.109Z,70.00
2018-11-05T12:02:56.017Z,70.09
2018-11-05T12:05:26.955Z,70.27
2018-11-05T12:07:57.620Z,70.21
2018-11-05T12:10:28.221Z,69.69
2018-11-05T12:12:58.810Z,69.41
2018-11-05T12:15:31.556Z,69.54
2018-11-05T12:18:02.283Z,69.23
2018-11-05T12:20:33.208Z,69.30
2018-11-05T12:23:04.351Z,69.28
2018-11-05T12:25:35.008Z,68.62
2018-11-05T12:28:06.458Z,68.38
2018-11-05T12:30:37.308Z,68.17
2018-11-05T12:33:08.788Z,68.14
2018-11-05T12:35:39.474Z,67.66
2018-11-05T12:38:10.245Z,67.59
2018-11-05T12:40:41.058Z,67.91
2018-11-05T12:43:11.701Z,68.04
2018-11-05T12:45:42.507Z,67.94
2018-11-05T12:48:13.276Z,68.20
2018-11-05T12:50:44.364Z,67.65
2018-11-05T12:53:15.511Z,68.20
2018-11-05T12:55:48.162Z,67.91
2018-11-05T12:58:23.333Z,68.47
2018-11-05T13:00:54.215Z,68.10
2018-11-05T13:03:24.698Z,68.60
2018-11-05T13:05:55.459Z,68.67
2018-11-05T13:08:29.560Z,68.39
2018-11-05T13:11:00.415Z,67.88
2018-11-05T13:13:31.028Z,67.94
2018-11-05T13:16:01.859Z,68.60
2018-11-05T13:18:35.766Z,69.14
2018-11-05T13:21:06.667Z,68.89
2018-11-05T13:23:43.549Z,68.54
2018-11-05T13:26:15.377Z,68.85
2018-11-05T13:28:46.193Z,68.41
2018-11-05T13:31:17.436Z,68.57
2018-11-05T13:33:48.944Z,68.71
2018-11-05T13:36:21.103Z,68.80
2018-11-05T13:38:51.893Z,68.59
2018-11-05T13:41:23.643Z,68.07
2018-11-05T13:43:54.384Z,68.17
2018-11-05T13:46:25.421Z,68.15
2018-11-05T13:48:58.749Z,68.02
2018-11-05T13:51:31.165Z,67.42
2018-11-05T13:54:01.835Z,68.19
2018-11-05T13:56:32.769Z,67.99
2018-11-05T13:59:03.621Z,67.79
2018-11-05T14:01:34.448Z,67.64
2018-11-05T14:04:07.121Z,68.25
2018-11-05T14:06:37.784Z,68.18
2018-11-05T14:09:09.919Z,68.04
2018-11-05T14:11:43.950Z,67.58
2018-11-05T14:14:15.297Z,68.34
2018-11-05T14:16:47.510Z,68.45
2018-11-05T14:19:18.213Z,67.78
2018-11-05T14:21:49.192Z,67.81
2018-11-05T14:24:21.653Z,67.92
2018-11-05T14:26:54.076Z,67.75
2018-11-05T14:29:27.747Z,68.21
2018-11-05T14:31:58.400Z,68.53
2018-11-05T14:34:29.343Z,68.02
2018-11-05T14:37:00.186Z,68.17
2018-11-05T14:39:36.812Z,67.80
2018-11-05T14:42:07.831Z,68.15
2018-11-05T14:44:38.488Z,68.12
2018-11-05T14:47:09.129Z,68.15
2018-11-05T14:49:40.151Z,67.77
2018-11-05T14:52:10.895Z,68.29
2018-11-05T14:54:42.033Z,68.08
2018-11-05T14:57:12.661Z,68.78
2018-11-05T14:59:43.452Z,68.24
2018-11-05T15:02:19.498Z,68.58
2018-11-05T15:04:52.890Z,68.43
2018-11-05T15:07:24.675Z,68.11
2018-11-05T15:09:58.332Z,68.67
2018-11-05T15:12:29.544Z,68.32
2018-11-05T15:15:00.220Z,68.17
2018-11-05T15:17:30.893Z,68.52
2018-11-05T15:20:02.235Z,68.53
2018-11-05T15:22:32.500Z,69.29
2018-11-05T15:25:06.989Z,69.20
2018-11-05T15:27:38.491Z,69.62
2018-11-05T15:30:15.057Z,69.30
2018-11-05T15:32:46.281Z,70.22
2018-11-05T15:35:17.547Z,70.36
2018-11-05T15:37:50.742Z,70.39
2018-11-05T15:40:22.560Z,70.85
2018-11-05T15:42:54.439Z,70.88
2018-11-05T15:45:25.698Z,71.10
2018-11-05T15:47:57.002Z,71.63
2018-11-05T15:50:27.664Z,71.94
2018-11-05T15:53:07.808Z,71.87
2018-11-05T15:55:38.451Z,72.03
2018-11-05T15:58:09.108Z,72.37
2018-11-05T16:00:40.206Z,72.62
2018-11-05T16:03:10.842Z,72.93
2018-11-05T16:05:41.572Z,72.55
2018-11-05T16:08:12.412Z,72.98
2018-11-05T16:10:43.179Z,72.49
2018-11-05T16:13:13.852Z,72.76
2018-11-05T16:15:45.160Z,73.40
2018-11-05T16:18:15.973Z,74.15
2018-11-05T16:20:46.772Z,74.19
2018-11-05T16:23:17.408Z,73.33
2018-11-05T16:25:48.076Z,73.26
2018-11-05T16:28:18.940Z,73.85
2018-11-05T16:30:49.712Z,74.58
2018-11-05T16:33:20.487Z,74.47
2018-11-05T16:35:51.387Z,74.91
2018-11-05T16:38:22.151Z,75.20
2018-11-05T16:40:52.966Z,75.55
2018-11-05T16:43:25.274Z,75.51
2018-11-05T16:45:56.845Z,75.91
2018-11-05T16:48:27.649Z,75.77
2018-11-05T16:51:00.215Z,75.77
2018-11-05T16:53:31.385Z,76.76
2018-11-05T16:56:03.101Z,76.42
2018-11-05T16:58:33.856Z,76.86
2018-11-05T17:01:04.682Z,76.96
2018-11-05T17:03:37.267Z,77.14
2018-11-05T17:06:07.868Z,77.19
2018-11-05T17:08:39.132Z,76.15
2018-11-05T17:11:09.748Z,75.97
2018-11-05T17:13:40.603Z,75.80
2018-11-05T17:16:11.308Z,76.84
2018-11-05T17:18:42.068Z,77.54
2018-11-05T17:21:12.796Z,78.36
2018-11-05T17:23:43.432Z,78.64
2018-11-05T17:26:14.060Z,78.87
2018-11-05T17:28:44.876Z,78.94
2018-11-05T17:31:15.528Z,77.78
2018-11-05T17:33:46.024Z,78.02
2018-11-05T17:36:16.792Z,77.60
2018-11-05T17:38:47.404Z,77.32
2018-11-05T17:41:18.186Z,78.15
2018-11-05T17:43:48.962Z,78.60
2018-11-05T17:46:19.818Z,78.82
2018-11-05T17:48:50.536Z,78.45
2018-11-05T17:51:21.170Z,78.67
2018-11-05T17:53:51.595Z,78.29
2018-11-05T17:56:22.262Z,78.48
2018-11-05T17:58:52.888Z,78.90
2018-11-05T18:01:23.627Z,78.47
2018-11-05T18:03:54.581Z,78.49
2018-11-05T18:06:25.580Z,79.46
2018-11-05T18:08:56.605Z,78.83
2018-11-05T18:11:30.339Z,79.87
2018-11-05T18:14:02.696Z,79.13
2018-11-05T18:16:33.542Z,79.52
2018-11-05T18:19:04.652Z,79.39
2018-11-05T18:21:35.309Z,79.91
2018-11-05T18:24:09.609Z,79.50
2018-11-05T18:26:42.829Z,79.74
2018-11-05T18:29:14.105Z,79.64
2018-11-05T18:31:45.006Z,79.91
2018-11-05T18:34:15.635Z,80.14
2018-11-05T18:36:46.265Z,79.82
2018-11-05T18:39:17.078Z,78.88
2018-11-05T18:41:47.927Z,78.06
2018-11-05T18:44:18.770Z,78.21
2018-11-05T18:46:49.531Z,78.56
2018-11-05T18:49:20.345Z,78.86
2018-11-05T18:51:52.089Z,80.59
2018-11-05T18:54:22.845Z,79.97
2018-11-05T18:56:54.727Z,79.87
2018-11-05T18:59:25.496Z,79.33
2018-11-05T19:01:56.586Z,79.55
2018-11-05T19:04:27.261Z,79.73
2018-11-05T19:06:58.020Z,79.61
2018-11-05T19:09:28.843Z,79.54
2018-11-05T19:11:59.877Z,79.72
2018-11-05T19:14:33.797Z,80.08
2018-11-05T19:17:04.457Z,79.86
2018-11-05T19:19:35.243Z,79.24
2018-11-05T19:22:06.526Z,79.58
2018-11-05T19:24:37.483Z,79.60
2018-11-05T19:27:08.185Z,80.33
2018-11-05T19:29:39.986Z,79.96
2018-11-05T19:32:10.752Z,80.54
2018-11-05T19:34:41.440Z,81.31
2018-11-05T19:37:12.454Z,80.45
2018-11-05T19:39:43.386Z,80.67
2018-11-05T19:42:14.718Z,80.94
2018-11-05T19:44:48.253Z,79.70
2018-11-05T19:47:19.076Z,80.43
2018-11-05T19:49:51.133Z,80.74
2018-11-05T19:52:23.533Z,80.59
2018-11-05T19:54:54.450Z,80.62
2018-11-05T19:57:25.288Z,80.94
2018-11-05T19:59:56.026Z,80.84
2018-11-05T20:02:29.647Z,80.01
2018-11-05T20:05:00.536Z,80.38
2018-11-05T20:07:31.199Z,80.19
2018-11-05T20:10:01.916Z,80.19
2018-11-05T20:12:32.911Z,80.82
2018-11-05T20:15:03.725Z,79.97
2018-11-05T20:17:35.135Z,80.04
2018-11-05T20:20:08.284Z,80.80
2018-11-05T20:22:39.375Z,80.53
2018-11-05T20:25:10.571Z,80.96
2018-11-05T20:27:42.067Z,80.37
2018-11-05T20:30:17.541Z,80.50
2018-11-05T20:32:49.419Z,80.09
2018-11-05T20:35:20.006Z,79.70
2018-11-05T20:37:51.830Z,79.93
2018-11-05T20:40:23.100Z,80.23
2018-11-05T20:42:55.122Z,80.41
2018-11-05T20:45:28.290Z,79.89
2018-11-05T20:47:59.500Z,79.86
2018-11-05T20:50:30.366Z,79.20
2018-11-05T20:53:01.720Z,79.79
2018-11-05T20:55:33.787Z,79.84
2018-11-05T20:58:04.472Z,80.32
2018-11-05T21:00:35.140Z,80.15
2018-11-05T21:03:05.930Z,79.95
2018-11-05T21:05:36.606Z,79.84
2018-11-05T21:08:07.358Z,80.22
2018-11-05T21:10:38.149Z,79.97
2018-11-05T21:13:09.075Z,79.99
2018-11-05T21:15:39.824Z,80.40
2018-11-05T21:18:10.516Z,80.41
2018-11-05T21:20:41.046Z,80.39
2018-11-05T21:23:11.885Z,80.96
2018-11-05T21:25:42.889Z,80.88
2018-11-05T21:28:13.591Z,80.62
2018-11-05T21:30:44.209Z,80.42
2018-11-05T21:33:14.839Z,80.67
2018-11-05T21:35:45.708Z,79.81
2018-11-05T21:38:16.287Z,79.21
2018-11-05T21:40:47.217Z,79.29
2018-11-05T21:43:18.099Z,78.58
2018-11-05T21:45:52.203Z,80.06
2018-11-05T21:48:22.791Z,79.82
2018-11-05T21:50:53.864Z,79.79
2018-11-05T21:53:24.477Z,79.78
2018-11-05T21:55:55.444Z,80.40
2018-11-05T21:58:26.271Z,80.19
2018-11-05T22:00:57.005Z,79.20
2018-11-05T22:03:27.830Z,78.64
2018-11-05T22:05:58.782Z,79.50
2018-11-05T22:08:29.495Z,79.51
2018-11-05T22:11:00.236Z,79.75
2018-11-05T22:13:31.887Z,79.12
2018-11-05T22:16:02.820Z,78.68
2018-11-05T22:18:33.462Z,78.69
2018-11-05T22:21:04.470Z,79.21
2018-11-05T22:23:35.296Z,79.44
2018-11-05T22:26:06.398Z,79.47
2018-11-05T22:28:37.132Z,79.62
2018-11-05T22:31:08.492Z,80.08
2018-11-05T22:33:39.948Z,80.44
2018-11-05T22:36:10.745Z,79.47
2018-11-05T22:38:41.580Z,80.14
2018-11-05T22:41:13.025Z,81.23
2018-11-05T22:43:43.963Z,80.62
2018-11-05T22:46:15.096Z,80.10
2018-11-05T22:48:46.371Z,80.20
2018-11-05T22:51:17.862Z,80.83
2018-11-05T22:53:51.047Z,80.64
2018-11-05T22:56:21.913Z,80.64
2018-11-05T22:58:52.583Z,80.65
2018-11-05T23:01:28.742Z,80.77
2018-11-05T23:04:02.719Z,80.78
2018-11-05T23:06:34.143Z,80.71
2018-11-05T23:09:06.209Z,80.31
2018-11-05T23:11:37.540Z,80.77
2018-11-05T23:14:08.236Z,80.29
2018-11-05T23:16:39.051Z,80.86
2018-11-05T23:19:09.737Z,79.68
2018-11-05T23:21:40.313Z,80.14
2018-11-05T23:24:10.962Z,80.45
2018-11-05T23:26:42.705Z,80.99
2018-11-05T23:29:13.356Z,81.04
2018-11-05T23:31:43.971Z,80.68
2018-11-05T23:34:14.694Z,81.48
2018-11-05T23:36:45.483Z,80.95
2018-11-05T23:39:16.196Z,80.53
2018-11-05T23:41:46.896Z,80.52
2018-11-05T23:44:17.766Z,81.70
2018-11-05T23:46:48.564Z,80.66
2018-11-05T23:49:19.211Z,79.54
2018-11-05T23:51:50.216Z,79.70
2018-11-05T23:54:21.183Z,80.29
2018-11-05T23:56:51.764Z,80.78
2018-11-05T23:59:22.555Z,80.83
